sensor_id;sensor_type;location;lat;lon;timestamp;P1;durP1;ratioP1;P2;durP2;ratioP2
57341;SDS011;43175;51.002;18.316;2024-03-02T00:01:09;72.80;;;40.20;;
57341;SDS011;43175;51.002;18.316;2024-03-02T00:03:36;74.30;;;40.60;;
57341;SDS011;43175;51.002;18.316;2024-03-02T00:06:02;78.10;;;40.50;;
57341;SDS011;43175;51.002;18.316;2024-03-02T00:08:27;73.10;;;39.90;;
57341;SDS011;43175;51.002;18.316;2024-03-02T00:10:57;74.80;;;40.10;;
57341;SDS011;43175;51.002;18.316;2024-03-02T00:13:23;73.30;;;39.50;;
57341;SDS011;43175;51.002;18.316;2024-03-02T00:15:51;73.20;;;39.70;;
57341;SDS011;43175;51.002;18.316;2024-03-02T00:18:20;73.10;;;38.70;;
57341;SDS011;43175;51.002;18.316;2024-03-02T00:20:46;70.40;;;39.20;;
57341;SDS011;43175;51.002;18.316;2024-03-02T00:23:14;72.40;;;38.20;;
57341;SDS011;43175;51.002;18.316;2024-03-02T00:25:43;72.10;;;40.20;;
57341;SDS011;43175;51.002;18.316;2024-03-02T00:28:16;76.60;;;41.20;;
57341;SDS011;43175;51.002;18.316;2024-03-02T00:33:14;75.20;;;39.50;;
57341;SDS011;43175;51.002;18.316;2024-03-02T00:35:40;75.00;;;38.70;;
57341;SDS011;43175;51.002;18.316;2024-03-02T00:38:05;67.70;;;37.00;;
57341;SDS011;43175;51.002;18.316;2024-03-02T00:40:31;72.80;;;39.90;;
57341;SDS011;43175;51.002;18.316;2024-03-02T00:42:57;71.40;;;39.70;;
57341;SDS011;43175;51.002;18.316;2024-03-02T00:45:23;76.40;;;39.90;;
57341;SDS011;43175;51.002;18.316;2024-03-02T00:47:50;76.50;;;40.50;;
57341;SDS011;43175;51.002;18.316;2024-03-02T00:50:16;73.70;;;40.90;;
57341;SDS011;43175;51.002;18.316;2024-03-02T00:52:42;73.20;;;38.90;;
57341;SDS011;43175;51.002;18.316;2024-03-02T00:55:08;71.10;;;39.00;;
57341;SDS011;43175;51.002;18.316;2024-03-02T00:57:33;75.70;;;39.10;;
57341;SDS011;43175;51.002;18.316;2024-03-02T01:00:00;71.30;;;39.20;;
57341;SDS011;43175;51.002;18.316;2024-03-02T01:02:25;70.10;;;38.50;;
57341;SDS011;43175;51.002;18.316;2024-03-02T01:04:50;74.70;;;39.50;;
57341;SDS011;43175;51.002;18.316;2024-03-02T01:07:16;66.80;;;38.50;;
57341;SDS011;43175;51.002;18.316;2024-03-02T01:09:41;76.90;;;39.00;;
57341;SDS011;43175;51.002;18.316;2024-03-02T01:12:07;66.50;;;38.10;;
57341;SDS011;43175;51.002;18.316;2024-03-02T01:14:32;66.80;;;38.80;;
57341;SDS011;43175;51.002;18.316;2024-03-02T01:16:58;68.60;;;38.90;;
57341;SDS011;43175;51.002;18.316;2024-03-02T01:19:23;69.10;;;39.10;;
57341;SDS011;43175;51.002;18.316;2024-03-02T01:21:49;73.00;;;41.20;;
57341;SDS011;43175;51.002;18.316;2024-03-02T01:24:15;67.80;;;39.20;;
57341;SDS011;43175;51.002;18.316;2024-03-02T01:26:42;74.60;;;40.40;;
57341;SDS011;43175;51.002;18.316;2024-03-02T01:29:07;72.60;;;40.10;;
57341;SDS011;43175;51.002;18.316;2024-03-02T01:31:33;69.10;;;38.50;;
57341;SDS011;43175;51.002;18.316;2024-03-02T01:33:58;70.80;;;38.30;;
57341;SDS011;43175;51.002;18.316;2024-03-02T01:36:24;67.90;;;39.10;;
57341;SDS011;43175;51.002;18.316;2024-03-02T01:38:49;67.80;;;38.20;;
57341;SDS011;43175;51.002;18.316;2024-03-02T01:41:15;63.20;;;37.90;;
57341;SDS011;43175;51.002;18.316;2024-03-02T01:43:40;65.40;;;38.20;;
57341;SDS011;43175;51.002;18.316;2024-03-02T01:46:06;73.10;;;38.60;;
57341;SDS011;43175;51.002;18.316;2024-03-02T01:48:31;65.80;;;38.60;;
57341;SDS011;43175;51.002;18.316;2024-03-02T01:50:57;71.50;;;39.10;;
57341;SDS011;43175;51.002;18.316;2024-03-02T01:53:22;68.70;;;37.90;;
57341;SDS011;43175;51.002;18.316;2024-03-02T01:55:48;68.00;;;38.30;;
57341;SDS011;43175;51.002;18.316;2024-03-02T01:58:14;66.40;;;36.90;;
57341;SDS011;43175;51.002;18.316;2024-03-02T02:00:40;63.50;;;35.00;;
57341;SDS011;43175;51.002;18.316;2024-03-02T02:03:05;65.40;;;37.70;;
57341;SDS011;43175;51.002;18.316;2024-03-02T02:05:32;66.90;;;36.80;;
57341;SDS011;43175;51.002;18.316;2024-03-02T02:07:57;66.80;;;37.40;;
57341;SDS011;43175;51.002;18.316;2024-03-02T02:10:23;69.40;;;38.30;;
57341;SDS011;43175;51.002;18.316;2024-03-02T02:12:49;68.80;;;38.00;;
57341;SDS011;43175;51.002;18.316;2024-03-02T02:15:28;65.90;;;36.80;;
57341;SDS011;43175;51.002;18.316;2024-03-02T02:17:57;64.30;;;37.50;;
57341;SDS011;43175;51.002;18.316;2024-03-02T02:20:23;69.20;;;36.70;;
57341;SDS011;43175;51.002;18.316;2024-03-02T02:22:54;64.40;;;36.90;;
57341;SDS011;43175;51.002;18.316;2024-03-02T02:25:19;66.00;;;37.50;;
57341;SDS011;43175;51.002;18.316;2024-03-02T02:27:44;65.10;;;36.20;;
57341;SDS011;43175;51.002;18.316;2024-03-02T02:30:10;67.40;;;37.60;;
57341;SDS011;43175;51.002;18.316;2024-03-02T02:32:36;62.10;;;35.90;;
57341;SDS011;43175;51.002;18.316;2024-03-02T02:35:02;63.90;;;36.20;;
57341;SDS011;43175;51.002;18.316;2024-03-02T02:37:27;64.30;;;36.10;;
57341;SDS011;43175;51.002;18.316;2024-03-02T02:39:52;67.20;;;37.90;;
57341;SDS011;43175;51.002;18.316;2024-03-02T02:42:18;66.50;;;37.70;;
57341;SDS011;43175;51.002;18.316;2024-03-02T02:44:43;64.90;;;38.60;;
57341;SDS011;43175;51.002;18.316;2024-03-02T02:47:09;63.50;;;37.70;;
57341;SDS011;43175;51.002;18.316;2024-03-02T02:49:35;63.60;;;37.10;;
57341;SDS011;43175;51.002;18.316;2024-03-02T02:52:00;69.20;;;37.60;;
57341;SDS011;43175;51.002;18.316;2024-03-02T02:54:26;68.80;;;37.80;;
57341;SDS011;43175;51.002;18.316;2024-03-02T02:56:51;66.90;;;36.80;;
57341;SDS011;43175;51.002;18.316;2024-03-02T02:59:17;66.00;;;38.10;;
57341;SDS011;43175;51.002;18.316;2024-03-02T03:01:42;65.50;;;36.60;;
57341;SDS011;43175;51.002;18.316;2024-03-02T03:04:08;64.80;;;36.80;;
57341;SDS011;43175;51.002;18.316;2024-03-02T03:06:33;65.10;;;37.50;;
57341;SDS011;43175;51.002;18.316;2024-03-02T03:08:59;65.10;;;37.70;;
57341;SDS011;43175;51.002;18.316;2024-03-02T03:11:25;65.30;;;39.10;;
57341;SDS011;43175;51.002;18.316;2024-03-02T03:13:52;62.60;;;37.20;;
57341;SDS011;43175;51.002;18.316;2024-03-02T03:16:19;65.20;;;37.70;;
57341;SDS011;43175;51.002;18.316;2024-03-02T03:18:44;68.30;;;37.50;;
57341;SDS011;43175;51.002;18.316;2024-03-02T03:21:10;67.00;;;38.70;;
57341;SDS011;43175;51.002;18.316;2024-03-02T03:23:36;66.00;;;38.60;;
57341;SDS011;43175;51.002;18.316;2024-03-02T03:26:01;67.20;;;37.80;;
57341;SDS011;43175;51.002;18.316;2024-03-02T03:28:27;69.80;;;38.10;;
57341;SDS011;43175;51.002;18.316;2024-03-02T03:30:52;63.50;;;37.00;;
57341;SDS011;43175;51.002;18.316;2024-03-02T03:33:17;66.20;;;37.20;;
57341;SDS011;43175;51.002;18.316;2024-03-02T03:35:43;63.90;;;37.20;;
57341;SDS011;43175;51.002;18.316;2024-03-02T03:38:08;64.40;;;38.30;;
57341;SDS011;43175;51.002;18.316;2024-03-02T03:40:34;61.20;;;36.90;;
57341;SDS011;43175;51.002;18.316;2024-03-02T03:42:59;66.60;;;36.60;;
57341;SDS011;43175;51.002;18.316;2024-03-02T03:45:25;60.20;;;34.80;;
57341;SDS011;43175;51.002;18.316;2024-03-02T03:47:52;56.50;;;35.20;;
57341;SDS011;43175;51.002;18.316;2024-03-02T03:50:18;65.20;;;35.80;;
57341;SDS011;43175;51.002;18.316;2024-03-02T03:52:43;60.90;;;36.20;;
57341;SDS011;43175;51.002;18.316;2024-03-02T03:55:09;65.00;;;36.40;;
57341;SDS011;43175;51.002;18.316;2024-03-02T03:57:35;58.80;;;35.10;;
57341;SDS011;43175;51.002;18.316;2024-03-02T04:00:01;64.00;;;35.90;;
57341;SDS011;43175;51.002;18.316;2024-03-02T04:02:26;59.70;;;35.70;;
57341;SDS011;43175;51.002;18.316;2024-03-02T04:04:51;58.40;;;35.00;;
57341;SDS011;43175;51.002;18.316;2024-03-02T04:07:17;67.10;;;37.30;;
57341;SDS011;43175;51.002;18.316;2024-03-02T04:09:43;60.40;;;36.20;;
57341;SDS011;43175;51.002;18.316;2024-03-02T04:12:09;57.10;;;35.10;;
57341;SDS011;43175;51.002;18.316;2024-03-02T04:14:35;57.30;;;35.30;;
57341;SDS011;43175;51.002;18.316;2024-03-02T04:17:00;60.70;;;35.40;;
57341;SDS011;43175;51.002;18.316;2024-03-02T04:19:26;65.60;;;36.60;;
57341;SDS011;43175;51.002;18.316;2024-03-02T04:21:51;61.70;;;36.20;;
57341;SDS011;43175;51.002;18.316;2024-03-02T04:24:16;63.10;;;36.30;;
57341;SDS011;43175;51.002;18.316;2024-03-02T04:26:42;63.60;;;36.30;;
57341;SDS011;43175;51.002;18.316;2024-03-02T04:29:07;60.10;;;36.70;;
57341;SDS011;43175;51.002;18.316;2024-03-02T04:31:33;62.20;;;36.40;;
57341;SDS011;43175;51.002;18.316;2024-03-02T04:33:58;64.00;;;35.60;;
57341;SDS011;43175;51.002;18.316;2024-03-02T04:36:24;62.60;;;36.10;;
57341;SDS011;43175;51.002;18.316;2024-03-02T04:38:49;61.40;;;34.90;;
57341;SDS011;43175;51.002;18.316;2024-03-02T04:41:15;59.20;;;35.60;;
57341;SDS011;43175;51.002;18.316;2024-03-02T04:43:40;60.70;;;36.00;;
57341;SDS011;43175;51.002;18.316;2024-03-02T04:46:06;57.50;;;34.70;;
57341;SDS011;43175;51.002;18.316;2024-03-02T04:48:32;63.00;;;35.30;;
57341;SDS011;43175;51.002;18.316;2024-03-02T04:50:58;56.00;;;34.40;;
57341;SDS011;43175;51.002;18.316;2024-03-02T04:53:23;51.80;;;33.70;;
57341;SDS011;43175;51.002;18.316;2024-03-02T04:55:49;59.00;;;35.20;;
57341;SDS011;43175;51.002;18.316;2024-03-02T04:58:35;56.20;;;33.60;;
57341;SDS011;43175;51.002;18.316;2024-03-02T05:01:00;59.40;;;35.40;;
57341;SDS011;43175;51.002;18.316;2024-03-02T05:03:26;65.20;;;36.30;;
57341;SDS011;43175;51.002;18.316;2024-03-02T05:05:52;67.40;;;37.80;;
57341;SDS011;43175;51.002;18.316;2024-03-02T05:08:17;71.50;;;40.50;;
57341;SDS011;43175;51.002;18.316;2024-03-02T05:10:43;70.90;;;38.80;;
57341;SDS011;43175;51.002;18.316;2024-03-02T05:13:08;63.60;;;36.00;;
57341;SDS011;43175;51.002;18.316;2024-03-02T05:15:34;59.80;;;34.10;;
57341;SDS011;43175;51.002;18.316;2024-03-02T05:18:00;57.40;;;33.80;;
57341;SDS011;43175;51.002;18.316;2024-03-02T05:20:27;56.50;;;34.20;;
57341;SDS011;43175;51.002;18.316;2024-03-02T05:22:53;58.40;;;33.40;;
57341;SDS011;43175;51.002;18.316;2024-03-02T05:25:18;58.20;;;32.20;;
57341;SDS011;43175;51.002;18.316;2024-03-02T05:27:44;54.00;;;32.00;;
57341;SDS011;43175;51.002;18.316;2024-03-02T05:30:09;56.80;;;31.80;;
57341;SDS011;43175;51.002;18.316;2024-03-02T05:32:35;51.50;;;31.80;;
57341;SDS011;43175;51.002;18.316;2024-03-02T05:35:00;51.50;;;30.70;;
57341;SDS011;43175;51.002;18.316;2024-03-02T05:37:26;54.40;;;31.30;;
57341;SDS011;43175;51.002;18.316;2024-03-02T05:39:51;49.70;;;30.70;;
57341;SDS011;43175;51.002;18.316;2024-03-02T05:42:17;52.00;;;31.10;;
57341;SDS011;43175;51.002;18.316;2024-03-02T05:44:43;51.30;;;30.80;;
57341;SDS011;43175;51.002;18.316;2024-03-02T05:47:08;50.90;;;30.60;;
57341;SDS011;43175;51.002;18.316;2024-03-02T05:49:34;53.10;;;30.80;;
57341;SDS011;43175;51.002;18.316;2024-03-02T05:52:00;52.90;;;31.10;;
57341;SDS011;43175;51.002;18.316;2024-03-02T05:54:25;51.70;;;29.20;;
57341;SDS011;43175;51.002;18.316;2024-03-02T05:56:51;50.30;;;29.30;;
57341;SDS011;43175;51.002;18.316;2024-03-02T05:59:16;49.40;;;29.90;;
57341;SDS011;43175;51.002;18.316;2024-03-02T06:01:43;52.20;;;29.80;;
57341;SDS011;43175;51.002;18.316;2024-03-02T06:04:09;47.60;;;28.90;;
57341;SDS011;43175;51.002;18.316;2024-03-02T06:06:34;47.30;;;28.90;;
57341;SDS011;43175;51.002;18.316;2024-03-02T06:09:03;48.50;;;29.30;;
57341;SDS011;43175;51.002;18.316;2024-03-02T06:11:36;53.90;;;30.40;;
57341;SDS011;43175;51.002;18.316;2024-03-02T06:14:02;48.10;;;28.50;;
57341;SDS011;43175;51.002;18.316;2024-03-02T06:16:27;48.00;;;28.10;;
57341;SDS011;43175;51.002;18.316;2024-03-02T06:18:53;51.50;;;28.80;;
57341;SDS011;43175;51.002;18.316;2024-03-02T06:21:19;46.90;;;27.00;;
57341;SDS011;43175;51.002;18.316;2024-03-02T06:23:45;42.40;;;26.20;;
57341;SDS011;43175;51.002;18.316;2024-03-02T06:26:11;49.70;;;27.30;;
57341;SDS011;43175;51.002;18.316;2024-03-02T06:28:38;44.10;;;26.60;;
57341;SDS011;43175;51.002;18.316;2024-03-02T06:31:03;46.70;;;27.00;;
57341;SDS011;43175;51.002;18.316;2024-03-02T06:33:29;47.40;;;27.00;;
57341;SDS011;43175;51.002;18.316;2024-03-02T06:35:54;46.60;;;27.30;;
57341;SDS011;43175;51.002;18.316;2024-03-02T06:38:19;45.90;;;27.80;;
57341;SDS011;43175;51.002;18.316;2024-03-02T06:40:45;46.50;;;28.90;;
57341;SDS011;43175;51.002;18.316;2024-03-02T06:43:10;47.50;;;27.50;;
57341;SDS011;43175;51.002;18.316;2024-03-02T06:45:36;45.10;;;27.50;;
57341;SDS011;43175;51.002;18.316;2024-03-02T06:48:01;46.40;;;27.80;;
57341;SDS011;43175;51.002;18.316;2024-03-02T06:50:27;48.00;;;28.30;;
57341;SDS011;43175;51.002;18.316;2024-03-02T06:52:52;43.30;;;27.70;;
57341;SDS011;43175;51.002;18.316;2024-03-02T06:55:18;46.20;;;28.30;;
57341;SDS011;43175;51.002;18.316;2024-03-02T06:57:43;46.00;;;28.90;;
57341;SDS011;43175;51.002;18.316;2024-03-02T07:00:09;48.00;;;28.70;;
57341;SDS011;43175;51.002;18.316;2024-03-02T07:02:35;49.50;;;29.80;;
57341;SDS011;43175;51.002;18.316;2024-03-02T07:05:01;49.80;;;29.60;;
57341;SDS011;43175;51.002;18.316;2024-03-02T07:07:27;53.70;;;30.70;;
57341;SDS011;43175;51.002;18.316;2024-03-02T07:09:52;47.80;;;27.70;;
57341;SDS011;43175;51.002;18.316;2024-03-02T07:12:18;45.30;;;26.00;;
57341;SDS011;43175;51.002;18.316;2024-03-02T07:14:43;38.60;;;24.30;;
57341;SDS011;43175;51.002;18.316;2024-03-02T07:17:27;42.90;;;25.70;;
57341;SDS011;43175;51.002;18.316;2024-03-02T07:19:53;42.70;;;26.40;;
57341;SDS011;43175;51.002;18.316;2024-03-02T07:22:19;44.00;;;25.90;;
57341;SDS011;43175;51.002;18.316;2024-03-02T07:24:44;40.60;;;25.00;;
57341;SDS011;43175;51.002;18.316;2024-03-02T07:27:11;39.10;;;24.30;;
57341;SDS011;43175;51.002;18.316;2024-03-02T07:29:37;39.00;;;23.80;;
57341;SDS011;43175;51.002;18.316;2024-03-02T07:32:03;38.20;;;24.40;;
57341;SDS011;43175;51.002;18.316;2024-03-02T07:34:29;42.40;;;25.60;;
57341;SDS011;43175;51.002;18.316;2024-03-02T07:36:54;46.80;;;25.50;;
57341;SDS011;43175;51.002;18.316;2024-03-02T07:39:20;41.30;;;23.50;;
57341;SDS011;43175;51.002;18.316;2024-03-02T07:41:46;40.40;;;23.00;;
57341;SDS011;43175;51.002;18.316;2024-03-02T07:44:12;39.80;;;23.50;;
57341;SDS011;43175;51.002;18.316;2024-03-02T07:46:40;38.80;;;22.40;;
57341;SDS011;43175;51.002;18.316;2024-03-02T07:49:06;39.80;;;22.90;;
57341;SDS011;43175;51.002;18.316;2024-03-02T07:51:31;41.80;;;22.30;;
57341;SDS011;43175;51.002;18.316;2024-03-02T07:53:57;38.70;;;22.40;;
57341;SDS011;43175;51.002;18.316;2024-03-02T07:56:22;36.60;;;22.20;;
57341;SDS011;43175;51.002;18.316;2024-03-02T07:58:50;34.70;;;21.30;;
57341;SDS011;43175;51.002;18.316;2024-03-02T08:01:16;32.40;;;20.90;;
57341;SDS011;43175;51.002;18.316;2024-03-02T08:03:42;34.10;;;21.10;;
57341;SDS011;43175;51.002;18.316;2024-03-02T08:06:08;33.50;;;20.40;;
57341;SDS011;43175;51.002;18.316;2024-03-02T08:08:33;33.90;;;20.30;;
57341;SDS011;43175;51.002;18.316;2024-03-02T08:10:59;33.30;;;20.90;;
57341;SDS011;43175;51.002;18.316;2024-03-02T08:13:24;33.50;;;20.30;;
57341;SDS011;43175;51.002;18.316;2024-03-02T08:15:50;32.60;;;19.70;;
57341;SDS011;43175;51.002;18.316;2024-03-02T08:18:15;34.40;;;19.70;;
57341;SDS011;43175;51.002;18.316;2024-03-02T08:20:41;29.80;;;19.80;;
57341;SDS011;43175;51.002;18.316;2024-03-02T08:23:06;30.40;;;18.80;;
57341;SDS011;43175;51.002;18.316;2024-03-02T08:25:33;32.60;;;18.70;;
57341;SDS011;43175;51.002;18.316;2024-03-02T08:27:58;31.10;;;18.50;;
57341;SDS011;43175;51.002;18.316;2024-03-02T08:30:24;30.80;;;19.10;;
57341;SDS011;43175;51.002;18.316;2024-03-02T08:32:49;28.80;;;18.40;;
57341;SDS011;43175;51.002;18.316;2024-03-02T08:35:15;30.20;;;18.60;;
57341;SDS011;43175;51.002;18.316;2024-03-02T08:37:41;30.70;;;18.30;;
57341;SDS011;43175;51.002;18.316;2024-03-02T08:40:07;29.60;;;18.40;;
57341;SDS011;43175;51.002;18.316;2024-03-02T08:42:33;30.40;;;18.00;;
57341;SDS011;43175;51.002;18.316;2024-03-02T08:44:59;29.30;;;17.60;;
57341;SDS011;43175;51.002;18.316;2024-03-02T08:47:26;31.10;;;17.70;;
57341;SDS011;43175;51.002;18.316;2024-03-02T08:49:52;31.70;;;18.30;;
57341;SDS011;43175;51.002;18.316;2024-03-02T08:52:18;27.40;;;16.80;;
57341;SDS011;43175;51.002;18.316;2024-03-02T08:54:44;29.70;;;16.70;;
57341;SDS011;43175;51.002;18.316;2024-03-02T08:57:09;30.90;;;17.50;;
57341;SDS011;43175;51.002;18.316;2024-03-02T08:59:35;27.30;;;16.90;;
57341;SDS011;43175;51.002;18.316;2024-03-02T09:02:00;26.60;;;17.70;;
57341;SDS011;43175;51.002;18.316;2024-03-02T09:04:25;27.60;;;16.40;;
57341;SDS011;43175;51.002;18.316;2024-03-02T09:06:51;26.80;;;16.40;;
57341;SDS011;43175;51.002;18.316;2024-03-02T09:09:16;30.00;;;16.80;;
57341;SDS011;43175;51.002;18.316;2024-03-02T09:11:42;28.40;;;16.40;;
57341;SDS011;43175;51.002;18.316;2024-03-02T09:14:07;26.10;;;15.80;;
57341;SDS011;43175;51.002;18.316;2024-03-02T09:16:34;25.70;;;16.00;;
57341;SDS011;43175;51.002;18.316;2024-03-02T09:18:59;26.20;;;15.60;;
57341;SDS011;43175;51.002;18.316;2024-03-02T09:21:26;27.90;;;15.80;;
57341;SDS011;43175;51.002;18.316;2024-03-02T09:23:51;27.00;;;15.50;;
57341;SDS011;43175;51.002;18.316;2024-03-02T09:26:17;26.30;;;15.30;;
57341;SDS011;43175;51.002;18.316;2024-03-02T09:28:43;26.30;;;15.10;;
57341;SDS011;43175;51.002;18.316;2024-03-02T09:31:09;26.90;;;14.70;;
57341;SDS011;43175;51.002;18.316;2024-03-02T09:33:34;24.80;;;15.00;;
57341;SDS011;43175;51.002;18.316;2024-03-02T09:36:00;26.70;;;15.60;;
57341;SDS011;43175;51.002;18.316;2024-03-02T09:38:25;33.00;;;19.40;;
57341;SDS011;43175;51.002;18.316;2024-03-02T09:40:51;35.40;;;21.80;;
57341;SDS011;43175;51.002;18.316;2024-03-02T09:43:16;35.50;;;21.90;;
57341;SDS011;43175;51.002;18.316;2024-03-02T09:45:42;42.10;;;26.10;;
57341;SDS011;43175;51.002;18.316;2024-03-02T09:48:08;41.00;;;26.20;;
57341;SDS011;43175;51.002;18.316;2024-03-02T09:50:33;40.60;;;24.80;;
57341;SDS011;43175;51.002;18.316;2024-03-02T09:52:59;36.80;;;23.20;;
57341;SDS011;43175;51.002;18.316;2024-03-02T09:55:24;38.50;;;25.20;;
57341;SDS011;43175;51.002;18.316;2024-03-02T09:57:50;42.60;;;25.50;;
57341;SDS011;43175;51.002;18.316;2024-03-02T10:00:16;42.20;;;26.00;;
57341;SDS011;43175;51.002;18.316;2024-03-02T10:02:42;42.10;;;24.80;;
57341;SDS011;43175;51.002;18.316;2024-03-02T10:05:10;41.80;;;25.20;;
57341;SDS011;43175;51.002;18.316;2024-03-02T10:07:36;43.60;;;28.00;;
57341;SDS011;43175;51.002;18.316;2024-03-02T10:10:14;44.90;;;25.70;;
57341;SDS011;43175;51.002;18.316;2024-03-02T10:12:41;40.10;;;24.60;;
57341;SDS011;43175;51.002;18.316;2024-03-02T10:15:07;36.50;;;22.60;;
57341;SDS011;43175;51.002;18.316;2024-03-02T10:17:34;34.80;;;22.60;;
57341;SDS011;43175;51.002;18.316;2024-03-02T10:20:00;38.90;;;22.80;;
57341;SDS011;43175;51.002;18.316;2024-03-02T10:22:45;37.70;;;22.80;;
57341;SDS011;43175;51.002;18.316;2024-03-02T10:25:17;37.60;;;24.10;;
57341;SDS011;43175;51.002;18.316;2024-03-02T10:30:19;35.00;;;22.40;;
57341;SDS011;43175;51.002;18.316;2024-03-02T10:32:44;33.80;;;21.90;;
57341;SDS011;43175;51.002;18.316;2024-03-02T10:35:10;35.60;;;22.00;;
57341;SDS011;43175;51.002;18.316;2024-03-02T10:37:35;32.80;;;21.00;;
57341;SDS011;43175;51.002;18.316;2024-03-02T10:40:04;37.50;;;23.30;;
57341;SDS011;43175;51.002;18.316;2024-03-02T10:42:30;41.10;;;24.60;;
57341;SDS011;43175;51.002;18.316;2024-03-02T10:44:55;41.60;;;26.70;;
57341;SDS011;43175;51.002;18.316;2024-03-02T10:47:21;44.10;;;27.70;;
57341;SDS011;43175;51.002;18.316;2024-03-02T10:49:49;43.70;;;27.60;;
57341;SDS011;43175;51.002;18.316;2024-03-02T10:52:15;39.40;;;26.00;;
57341;SDS011;43175;51.002;18.316;2024-03-02T10:54:40;42.10;;;26.40;;
57341;SDS011;43175;51.002;18.316;2024-03-02T10:57:07;45.10;;;24.80;;
57341;SDS011;43175;51.002;18.316;2024-03-02T10:59:33;30.30;;;19.70;;
57341;SDS011;43175;51.002;18.316;2024-03-02T11:02:00;30.20;;;17.20;;
57341;SDS011;43175;51.002;18.316;2024-03-02T11:04:27;26.90;;;15.70;;
57341;SDS011;43175;51.002;18.316;2024-03-02T11:07:14;26.70;;;16.00;;
57341;SDS011;43175;51.002;18.316;2024-03-02T11:09:40;27.40;;;16.80;;
57341;SDS011;43175;51.002;18.316;2024-03-02T11:12:09;27.90;;;16.50;;
57341;SDS011;43175;51.002;18.316;2024-03-02T11:14:40;29.70;;;17.50;;
57341;SDS011;43175;51.002;18.316;2024-03-02T11:17:06;26.50;;;15.80;;
57341;SDS011;43175;51.002;18.316;2024-03-02T11:19:32;36.30;;;23.00;;
57341;SDS011;43175;51.002;18.316;2024-03-02T11:21:58;40.50;;;26.00;;
57341;SDS011;43175;51.002;18.316;2024-03-02T11:26:49;37.90;;;24.30;;
57341;SDS011;43175;51.002;18.316;2024-03-02T11:32:01;38.70;;;23.80;;
57341;SDS011;43175;51.002;18.316;2024-03-02T11:34:33;39.10;;;25.10;;
57341;SDS011;43175;51.002;18.316;2024-03-02T11:39:25;36.80;;;23.90;;
57341;SDS011;43175;51.002;18.316;2024-03-02T11:41:51;44.90;;;27.90;;
57341;SDS011;43175;51.002;18.316;2024-03-02T11:44:17;39.40;;;27.00;;
57341;SDS011;43175;51.002;18.316;2024-03-02T11:46:44;37.80;;;26.50;;
57341;SDS011;43175;51.002;18.316;2024-03-02T11:49:13;43.10;;;27.20;;
57341;SDS011;43175;51.002;18.316;2024-03-02T11:51:39;39.80;;;27.30;;
57341;SDS011;43175;51.002;18.316;2024-03-02T11:54:15;42.10;;;27.10;;
57341;SDS011;43175;51.002;18.316;2024-03-02T11:56:41;46.70;;;30.70;;
57341;SDS011;43175;51.002;18.316;2024-03-02T11:59:06;47.40;;;30.20;;
57341;SDS011;43175;51.002;18.316;2024-03-02T12:01:34;56.50;;;33.30;;
57341;SDS011;43175;51.002;18.316;2024-03-02T12:04:00;51.40;;;32.20;;
57341;SDS011;43175;51.002;18.316;2024-03-02T12:06:25;54.30;;;35.00;;
57341;SDS011;43175;51.002;18.316;2024-03-02T12:08:52;49.90;;;32.70;;
57341;SDS011;43175;51.002;18.316;2024-03-02T12:11:17;49.80;;;32.40;;
57341;SDS011;43175;51.002;18.316;2024-03-02T12:13:51;51.00;;;33.60;;
57341;SDS011;43175;51.002;18.316;2024-03-02T12:16:26;48.10;;;33.10;;
57341;SDS011;43175;51.002;18.316;2024-03-02T12:18:51;45.70;;;31.90;;
57341;SDS011;43175;51.002;18.316;2024-03-02T12:21:17;47.10;;;32.10;;
57341;SDS011;43175;51.002;18.316;2024-03-02T12:23:43;47.00;;;31.30;;
57341;SDS011;43175;51.002;18.316;2024-03-02T12:26:08;49.80;;;32.90;;
57341;SDS011;43175;51.002;18.316;2024-03-02T12:28:34;54.70;;;32.60;;
57341;SDS011;43175;51.002;18.316;2024-03-02T12:31:00;50.10;;;31.70;;
57341;SDS011;43175;51.002;18.316;2024-03-02T12:33:25;49.50;;;32.90;;
57341;SDS011;43175;51.002;18.316;2024-03-02T12:35:52;49.10;;;32.00;;
57341;SDS011;43175;51.002;18.316;2024-03-02T12:38:18;47.50;;;31.90;;
57341;SDS011;43175;51.002;18.316;2024-03-02T12:40:44;48.30;;;32.30;;
57341;SDS011;43175;51.002;18.316;2024-03-02T12:43:10;44.60;;;30.10;;
57341;SDS011;43175;51.002;18.316;2024-03-02T12:45:36;46.90;;;30.60;;
57341;SDS011;43175;51.002;18.316;2024-03-02T12:48:02;47.90;;;31.20;;
57341;SDS011;43175;51.002;18.316;2024-03-02T12:50:28;45.00;;;30.80;;
57341;SDS011;43175;51.002;18.316;2024-03-02T12:52:53;45.80;;;30.20;;
57341;SDS011;43175;51.002;18.316;2024-03-02T12:55:19;49.70;;;31.80;;
57341;SDS011;43175;51.002;18.316;2024-03-02T12:57:45;49.90;;;32.80;;
57341;SDS011;43175;51.002;18.316;2024-03-02T13:00:11;43.30;;;29.10;;
57341;SDS011;43175;51.002;18.316;2024-03-02T13:02:41;42.30;;;28.60;;
57341;SDS011;43175;51.002;18.316;2024-03-02T13:05:07;41.60;;;27.70;;
57341;SDS011;43175;51.002;18.316;2024-03-02T13:07:39;46.20;;;28.70;;
57341;SDS011;43175;51.002;18.316;2024-03-02T13:10:05;47.10;;;28.80;;
57341;SDS011;43175;51.002;18.316;2024-03-02T13:12:31;47.20;;;29.50;;
57341;SDS011;43175;51.002;18.316;2024-03-02T13:14:57;43.20;;;29.70;;
57341;SDS011;43175;51.002;18.316;2024-03-02T13:17:23;42.30;;;28.80;;
57341;SDS011;43175;51.002;18.316;2024-03-02T13:19:55;46.30;;;30.60;;
57341;SDS011;43175;51.002;18.316;2024-03-02T13:22:21;43.80;;;30.70;;
57341;SDS011;43175;51.002;18.316;2024-03-02T13:24:47;46.90;;;30.70;;
57341;SDS011;43175;51.002;18.316;2024-03-02T13:27:12;45.40;;;29.50;;
57341;SDS011;43175;51.002;18.316;2024-03-02T13:29:38;47.30;;;30.00;;
57341;SDS011;43175;51.002;18.316;2024-03-02T13:32:04;44.80;;;29.00;;
57341;SDS011;43175;51.002;18.316;2024-03-02T13:34:29;44.90;;;28.90;;
57341;SDS011;43175;51.002;18.316;2024-03-02T13:36:55;46.20;;;29.80;;
57341;SDS011;43175;51.002;18.316;2024-03-02T13:39:20;46.70;;;29.30;;
57341;SDS011;43175;51.002;18.316;2024-03-02T13:41:46;47.10;;;29.80;;
57341;SDS011;43175;51.002;18.316;2024-03-02T13:44:18;45.60;;;29.10;;
57341;SDS011;43175;51.002;18.316;2024-03-02T13:46:44;44.40;;;29.80;;
57341;SDS011;43175;51.002;18.316;2024-03-02T13:49:11;55.80;;;36.70;;
57341;SDS011;43175;51.002;18.316;2024-03-02T13:51:37;57.50;;;37.60;;
57341;SDS011;43175;51.002;18.316;2024-03-02T13:54:02;61.80;;;38.60;;
57341;SDS011;43175;51.002;18.316;2024-03-02T13:56:29;58.90;;;37.30;;
57341;SDS011;43175;51.002;18.316;2024-03-02T13:58:54;53.90;;;35.90;;
57341;SDS011;43175;51.002;18.316;2024-03-02T14:01:20;56.70;;;36.00;;
57341;SDS011;43175;51.002;18.316;2024-03-02T14:03:45;52.70;;;35.40;;
57341;SDS011;43175;51.002;18.316;2024-03-02T14:06:11;56.50;;;38.10;;
57341;SDS011;43175;51.002;18.316;2024-03-02T14:08:37;60.90;;;42.20;;
57341;SDS011;43175;51.002;18.316;2024-03-02T14:11:03;67.30;;;45.60;;
57341;SDS011;43175;51.002;18.316;2024-03-02T14:13:28;58.20;;;37.30;;
57341;SDS011;43175;51.002;18.316;2024-03-02T14:15:54;57.30;;;38.40;;